Aviation Digital Data Service (ADDS)

Output produced by METARs form (0238 UTC 22 July 2017)
found at http://www.aviationweather.gov/adds/metars/
 
GOGS 220000Z 00000KT 9999 SCT015 24/23 Q1014
TAF GOGS 212330Z 2200/2224 25006KT 9999 SCT013 
     PROB40 
     TEMPO 2219/2223 18006KT 5000 TSRA BKN010 FEW025CB
       
GOGG 220200Z VRB02KT CAVOK 24/24 Q1014
GOGK 220000Z VRB02KT 8000 NSC 25/25 Q1013
GOGS 220000Z 00000KT 9999 SCT015 24/23 Q1014
TAF GOGS 212330Z 2200/2224 25006KT 9999 SCT013 
     PROB40 
     TEMPO 2219/2223 18006KT 5000 TSRA BKN010 FEW025CB
       
GOOD 220000Z 28006KT 8000 BKN013 27/24 Q1014
GOOG 220000Z 28006KT 8000 SCT011 SCT120 28/22 Q////
GOOK 220000Z 14010KT 9999 BKN013 28/24 Q1015
GOOY 220200Z 30011KT 270V340 9999 BKN015 27/23 Q1014 NOSIG
TAF GOOY 212330Z 2200/2306 31010KT 9999 SCT012 
     PROB30 
     TEMPO 2222/2304 21008KT 4000 TSRA BKN010 FEW025CB
       
GOSM 220000Z 30004KT CAVOK 28/23 Q1011
GOSP 220000Z 24006KT CAVOK 27/20 Q1012
GOSS 220000Z 30012KT 260V340 9999 SCT013 34/23 Q1013
TAF GOSS 212330Z 2200/2224 30010KT 9999 SCT013
       
GOTT 212300Z 26008KT CAVOK 26/23 Q1012
GOOK 220000Z 14010KT 9999 BKN013 28/24 Q1015
GOOY 220200Z 30011KT 270V340 9999 BKN015 27/23 Q1014 NOSIG
TAF GOOY 212330Z 2200/2306 31010KT 9999 SCT012 
     PROB30 
     TEMPO 2222/2304 21008KT 4000 TSRA BKN010 FEW025CB
       
GOSS 220000Z 30012KT 260V340 9999 SCT013 34/23 Q1013
TAF GOSS 212330Z 2200/2224 30010KT 9999 SCT013
       
GOTT 212300Z 26008KT CAVOK 26/23 Q1012
GOGG 220200Z VRB02KT CAVOK 24/24 Q1014